sensor_id;sensor_type;location;lat;lon;timestamp;temperature;humidity
9849;DHT22;4963;51.444;6.528;2023-12-28T00:02:00;9.70;99.90
9849;DHT22;4963;51.444;6.528;2023-12-28T00:04:27;9.70;99.90
9849;DHT22;4963;51.444;6.528;2023-12-28T00:06:56;9.60;99.90
9849;DHT22;4963;51.444;6.528;2023-12-28T00:09:23;9.70;99.90
9849;DHT22;4963;51.444;6.528;2023-12-28T00:11:50;9.70;99.90
9849;DHT22;4963;51.444;6.528;2023-12-28T00:14:17;9.70;99.90
9849;DHT22;4963;51.444;6.528;2023-12-28T00:16:44;9.60;99.90
9849;DHT22;4963;51.444;6.528;2023-12-28T00:19:11;9.70;99.90
9849;DHT22;4963;51.444;6.528;2023-12-28T00:21:38;9.60;99.90
9849;DHT22;4963;51.444;6.528;2023-12-28T00:24:07;9.60;99.90
9849;DHT22;4963;51.444;6.528;2023-12-28T00:26:33;9.60;99.90
9849;DHT22;4963;51.444;6.528;2023-12-28T00:29:00;9.60;99.90
9849;DHT22;4963;51.444;6.528;2023-12-28T00:31:27;9.50;99.90
9849;DHT22;4963;51.444;6.528;2023-12-28T00:33:54;9.50;99.90
9849;DHT22;4963;51.444;6.528;2023-12-28T00:36:21;9.50;99.90
9849;DHT22;4963;51.444;6.528;2023-12-28T00:38:48;9.50;99.90
9849;DHT22;4963;51.444;6.528;2023-12-28T00:41:17;9.50;99.90
9849;DHT22;4963;51.444;6.528;2023-12-28T00:43:43;9.50;99.90
9849;DHT22;4963;51.444;6.528;2023-12-28T00:46:10;9.50;99.90
9849;DHT22;4963;51.444;6.528;2023-12-28T00:48:37;9.50;99.90
9849;DHT22;4963;51.444;6.528;2023-12-28T00:51:04;9.60;99.90
9849;DHT22;4963;51.444;6.528;2023-12-28T00:53:31;9.50;99.90
9849;DHT22;4963;51.444;6.528;2023-12-28T00:55:58;9.60;99.90
9849;DHT22;4963;51.444;6.528;2023-12-28T00:58:26;9.60;99.90
9849;DHT22;4963;51.444;6.528;2023-12-28T01:00:53;9.50;99.90
9849;DHT22;4963;51.444;6.528;2023-12-28T01:03:22;9.50;99.90
9849;DHT22;4963;51.444;6.528;2023-12-28T01:05:50;9.50;99.90
9849;DHT22;4963;51.444;6.528;2023-12-28T01:08:18;9.50;99.90
9849;DHT22;4963;51.444;6.528;2023-12-28T01:10:45;9.40;99.90
9849;DHT22;4963;51.444;6.528;2023-12-28T01:13:12;9.40;99.90
9849;DHT22;4963;51.444;6.528;2023-12-28T01:15:40;9.50;99.90
9849;DHT22;4963;51.444;6.528;2023-12-28T01:18:07;9.50;99.90
9849;DHT22;4963;51.444;6.528;2023-12-28T01:20:34;9.50;99.90
9849;DHT22;4963;51.444;6.528;2023-12-28T01:23:01;9.50;99.90
9849;DHT22;4963;51.444;6.528;2023-12-28T01:25:28;9.50;99.90
9849;DHT22;4963;51.444;6.528;2023-12-28T01:27:55;9.50;99.90
9849;DHT22;4963;51.444;6.528;2023-12-28T01:30:22;9.50;99.90
9849;DHT22;4963;51.444;6.528;2023-12-28T01:32:50;9.50;99.90
9849;DHT22;4963;51.444;6.528;2023-12-28T01:35:17;9.50;99.90
9849;DHT22;4963;51.444;6.528;2023-12-28T01:37:44;9.50;99.90
9849;DHT22;4963;51.444;6.528;2023-12-28T01:40:11;9.50;99.90
9849;DHT22;4963;51.444;6.528;2023-12-28T01:42:38;9.50;99.90
9849;DHT22;4963;51.444;6.528;2023-12-28T01:45:06;9.50;99.90
9849;DHT22;4963;51.444;6.528;2023-12-28T01:47:34;9.60;99.90
9849;DHT22;4963;51.444;6.528;2023-12-28T01:50:03;9.60;99.90
9849;DHT22;4963;51.444;6.528;2023-12-28T01:52:30;9.60;99.90
9849;DHT22;4963;51.444;6.528;2023-12-28T01:54:57;9.60;99.90
9849;DHT22;4963;51.444;6.528;2023-12-28T01:57:24;9.60;99.90
9849;DHT22;4963;51.444;6.528;2023-12-28T01:59:52;9.70;99.90
9849;DHT22;4963;51.444;6.528;2023-12-28T02:02:21;9.70;99.90
9849;DHT22;4963;51.444;6.528;2023-12-28T02:04:48;9.60;99.90
9849;DHT22;4963;51.444;6.528;2023-12-28T02:07:18;9.70;99.90
9849;DHT22;4963;51.444;6.528;2023-12-28T02:09:47;9.70;99.90
9849;DHT22;4963;51.444;6.528;2023-12-28T02:12:14;9.70;99.90
9849;DHT22;4963;51.444;6.528;2023-12-28T02:14:41;9.80;99.90
9849;DHT22;4963;51.444;6.528;2023-12-28T02:17:12;9.70;99.90
9849;DHT22;4963;51.444;6.528;2023-12-28T02:19:44;9.70;99.90
9849;DHT22;4963;51.444;6.528;2023-12-28T02:22:14;9.70;99.90
9849;DHT22;4963;51.444;6.528;2023-12-28T02:25:04;9.70;99.90
9849;DHT22;4963;51.444;6.528;2023-12-28T02:27:31;9.70;99.90
9849;DHT22;4963;51.444;6.528;2023-12-28T02:29:58;9.70;99.90
9849;DHT22;4963;51.444;6.528;2023-12-28T02:32:39;9.70;99.90
9849;DHT22;4963;51.444;6.528;2023-12-28T02:35:17;9.70;99.90
9849;DHT22;4963;51.444;6.528;2023-12-28T02:37:49;9.80;99.90
9849;DHT22;4963;51.444;6.528;2023-12-28T02:40:19;9.80;99.90
9849;DHT22;4963;51.444;6.528;2023-12-28T02:42:47;9.80;99.90
9849;DHT22;4963;51.444;6.528;2023-12-28T02:45:14;9.80;99.90
9849;DHT22;4963;51.444;6.528;2023-12-28T02:47:41;9.70;99.90
9849;DHT22;4963;51.444;6.528;2023-12-28T02:50:09;9.70;99.90
9849;DHT22;4963;51.444;6.528;2023-12-28T02:52:36;9.70;99.90
9849;DHT22;4963;51.444;6.528;2023-12-28T02:55:04;9.70;99.90
9849;DHT22;4963;51.444;6.528;2023-12-28T02:57:32;9.80;99.90
9849;DHT22;4963;51.444;6.528;2023-12-28T03:00:04;9.80;99.90
9849;DHT22;4963;51.444;6.528;2023-12-28T03:02:31;9.80;99.90
9849;DHT22;4963;51.444;6.528;2023-12-28T03:04:58;9.80;99.90
9849;DHT22;4963;51.444;6.528;2023-12-28T03:07:25;9.80;99.90
9849;DHT22;4963;51.444;6.528;2023-12-28T03:09:52;9.80;99.90
9849;DHT22;4963;51.444;6.528;2023-12-28T03:12:18;9.80;99.90
9849;DHT22;4963;51.444;6.528;2023-12-28T03:14:47;9.80;99.90
9849;DHT22;4963;51.444;6.528;2023-12-28T03:17:13;9.80;99.90
9849;DHT22;4963;51.444;6.528;2023-12-28T03:19:40;9.80;99.90
9849;DHT22;4963;51.444;6.528;2023-12-28T03:22:07;9.80;99.90
9849;DHT22;4963;51.444;6.528;2023-12-28T03:24:36;9.80;99.90
9849;DHT22;4963;51.444;6.528;2023-12-28T03:27:03;9.90;99.90
9849;DHT22;4963;51.444;6.528;2023-12-28T03:29:30;9.80;99.90
9849;DHT22;4963;51.444;6.528;2023-12-28T03:31:58;9.80;99.90
9849;DHT22;4963;51.444;6.528;2023-12-28T03:34:26;9.80;99.90
9849;DHT22;4963;51.444;6.528;2023-12-28T03:36:54;9.80;99.90
9849;DHT22;4963;51.444;6.528;2023-12-28T03:39:22;9.70;99.90
9849;DHT22;4963;51.444;6.528;2023-12-28T03:41:51;9.70;99.90
9849;DHT22;4963;51.444;6.528;2023-12-28T03:44:18;9.70;99.90
9849;DHT22;4963;51.444;6.528;2023-12-28T03:46:45;9.70;99.90
9849;DHT22;4963;51.444;6.528;2023-12-28T03:49:15;9.70;99.90
9849;DHT22;4963;51.444;6.528;2023-12-28T03:51:42;9.70;99.90
9849;DHT22;4963;51.444;6.528;2023-12-28T03:54:09;9.70;99.90
9849;DHT22;4963;51.444;6.528;2023-12-28T03:56:36;9.60;99.90
9849;DHT22;4963;51.444;6.528;2023-12-28T03:59:05;9.60;99.90
9849;DHT22;4963;51.444;6.528;2023-12-28T04:01:32;9.60;99.90
9849;DHT22;4963;51.444;6.528;2023-12-28T04:03:59;9.60;99.90
9849;DHT22;4963;51.444;6.528;2023-12-28T04:06:27;9.60;99.90
9849;DHT22;4963;51.444;6.528;2023-12-28T04:08:54;9.60;99.90
9849;DHT22;4963;51.444;6.528;2023-12-28T04:11:21;9.60;99.90
9849;DHT22;4963;51.444;6.528;2023-12-28T04:13:48;9.60;99.90
9849;DHT22;4963;51.444;6.528;2023-12-28T04:16:15;9.60;99.90
9849;DHT22;4963;51.444;6.528;2023-12-28T04:18:42;9.60;99.90
9849;DHT22;4963;51.444;6.528;2023-12-28T04:21:09;9.60;99.90
9849;DHT22;4963;51.444;6.528;2023-12-28T04:23:40;9.70;99.90
9849;DHT22;4963;51.444;6.528;2023-12-28T04:26:07;9.70;99.90
9849;DHT22;4963;51.444;6.528;2023-12-28T04:28:34;9.70;99.90
9849;DHT22;4963;51.444;6.528;2023-12-28T04:31:03;9.60;99.90
9849;DHT22;4963;51.444;6.528;2023-12-28T04:33:30;9.60;99.90
9849;DHT22;4963;51.444;6.528;2023-12-28T04:35:57;9.60;99.90
9849;DHT22;4963;51.444;6.528;2023-12-28T04:38:24;9.60;99.90
9849;DHT22;4963;51.444;6.528;2023-12-28T04:40:52;9.60;99.90
9849;DHT22;4963;51.444;6.528;2023-12-28T04:43:19;9.60;99.90
9849;DHT22;4963;51.444;6.528;2023-12-28T04:45:49;9.60;99.90
9849;DHT22;4963;51.444;6.528;2023-12-28T04:48:16;9.60;99.90
9849;DHT22;4963;51.444;6.528;2023-12-28T04:50:46;9.60;99.90
9849;DHT22;4963;51.444;6.528;2023-12-28T04:53:13;9.60;99.90
9849;DHT22;4963;51.444;6.528;2023-12-28T04:55:40;9.70;99.90
9849;DHT22;4963;51.444;6.528;2023-12-28T04:58:09;9.70;99.90
9849;DHT22;4963;51.444;6.528;2023-12-28T05:00:36;9.70;99.90
9849;DHT22;4963;51.444;6.528;2023-12-28T05:03:05;9.60;99.90
9849;DHT22;4963;51.444;6.528;2023-12-28T05:05:31;9.70;99.90
9849;DHT22;4963;51.444;6.528;2023-12-28T05:07:58;9.70;99.90
9849;DHT22;4963;51.444;6.528;2023-12-28T05:10:25;9.70;99.90
9849;DHT22;4963;51.444;6.528;2023-12-28T05:12:52;9.70;99.90
9849;DHT22;4963;51.444;6.528;2023-12-28T05:15:21;9.70;99.90
9849;DHT22;4963;51.444;6.528;2023-12-28T05:17:47;9.70;99.90
9849;DHT22;4963;51.444;6.528;2023-12-28T05:20:16;9.70;99.90
9849;DHT22;4963;51.444;6.528;2023-12-28T05:22:43;9.70;99.90
9849;DHT22;4963;51.444;6.528;2023-12-28T05:25:10;9.70;99.90
9849;DHT22;4963;51.444;6.528;2023-12-28T05:27:36;9.70;99.90
9849;DHT22;4963;51.444;6.528;2023-12-28T05:30:06;9.70;99.90
9849;DHT22;4963;51.444;6.528;2023-12-28T05:32:34;9.70;99.90
9849;DHT22;4963;51.444;6.528;2023-12-28T05:35:01;9.70;99.90
9849;DHT22;4963;51.444;6.528;2023-12-28T05:37:28;9.70;99.90
9849;DHT22;4963;51.444;6.528;2023-12-28T05:39:55;9.70;99.90
9849;DHT22;4963;51.444;6.528;2023-12-28T05:42:23;9.70;99.90
9849;DHT22;4963;51.444;6.528;2023-12-28T05:44:50;9.70;99.90
9849;DHT22;4963;51.444;6.528;2023-12-28T05:47:16;9.80;99.90
9849;DHT22;4963;51.444;6.528;2023-12-28T05:49:45;9.80;99.90
9849;DHT22;4963;51.444;6.528;2023-12-28T05:52:12;9.80;99.90
9849;DHT22;4963;51.444;6.528;2023-12-28T05:54:40;9.80;99.90
9849;DHT22;4963;51.444;6.528;2023-12-28T05:57:08;9.80;99.90
9849;DHT22;4963;51.444;6.528;2023-12-28T05:59:37;9.80;99.90
9849;DHT22;4963;51.444;6.528;2023-12-28T06:02:05;9.90;99.90
9849;DHT22;4963;51.444;6.528;2023-12-28T06:04:31;9.90;99.90
9849;DHT22;4963;51.444;6.528;2023-12-28T06:07:00;9.90;99.90
9849;DHT22;4963;51.444;6.528;2023-12-28T06:09:27;9.90;99.90
9849;DHT22;4963;51.444;6.528;2023-12-28T06:11:54;9.90;99.90
9849;DHT22;4963;51.444;6.528;2023-12-28T06:14:21;9.90;99.90
9849;DHT22;4963;51.444;6.528;2023-12-28T06:16:48;10.00;99.90
9849;DHT22;4963;51.444;6.528;2023-12-28T06:19:15;9.90;99.90
9849;DHT22;4963;51.444;6.528;2023-12-28T06:21:42;9.90;99.90
9849;DHT22;4963;51.444;6.528;2023-12-28T06:24:11;9.90;99.90
9849;DHT22;4963;51.444;6.528;2023-12-28T06:26:39;10.00;99.90
9849;DHT22;4963;51.444;6.528;2023-12-28T06:29:07;10.00;99.90
9849;DHT22;4963;51.444;6.528;2023-12-28T06:31:34;10.00;99.90
9849;DHT22;4963;51.444;6.528;2023-12-28T06:34:02;10.00;99.90
9849;DHT22;4963;51.444;6.528;2023-12-28T06:36:29;10.00;99.90
9849;DHT22;4963;51.444;6.528;2023-12-28T06:38:56;10.00;99.90
9849;DHT22;4963;51.444;6.528;2023-12-28T06:41:24;10.00;99.90
9849;DHT22;4963;51.444;6.528;2023-12-28T06:43:51;10.00;99.90
9849;DHT22;4963;51.444;6.528;2023-12-28T06:46:19;10.00;99.90
9849;DHT22;4963;51.444;6.528;2023-12-28T06:48:45;10.00;99.90
9849;DHT22;4963;51.444;6.528;2023-12-28T06:51:16;10.00;99.90
9849;DHT22;4963;51.444;6.528;2023-12-28T06:53:43;10.00;99.90
9849;DHT22;4963;51.444;6.528;2023-12-28T06:56:11;10.00;99.90
9849;DHT22;4963;51.444;6.528;2023-12-28T06:58:39;10.00;99.90
9849;DHT22;4963;51.444;6.528;2023-12-28T07:01:06;10.00;99.90
9849;DHT22;4963;51.444;6.528;2023-12-28T07:03:33;10.00;99.90
9849;DHT22;4963;51.444;6.528;2023-12-28T07:06:00;10.00;99.90
9849;DHT22;4963;51.444;6.528;2023-12-28T07:08:26;10.00;99.90
9849;DHT22;4963;51.444;6.528;2023-12-28T07:10:53;10.00;99.90
9849;DHT22;4963;51.444;6.528;2023-12-28T07:13:20;10.10;99.90
9849;DHT22;4963;51.444;6.528;2023-12-28T07:15:48;10.10;99.90
9849;DHT22;4963;51.444;6.528;2023-12-28T07:18:15;10.10;99.90
9849;DHT22;4963;51.444;6.528;2023-12-28T07:20:43;10.10;99.90
9849;DHT22;4963;51.444;6.528;2023-12-28T07:23:09;10.10;99.90
9849;DHT22;4963;51.444;6.528;2023-12-28T07:25:36;10.10;99.90
9849;DHT22;4963;51.444;6.528;2023-12-28T07:28:04;10.10;99.90
9849;DHT22;4963;51.444;6.528;2023-12-28T07:30:31;10.10;99.90
9849;DHT22;4963;51.444;6.528;2023-12-28T07:32:59;10.10;99.90
9849;DHT22;4963;51.444;6.528;2023-12-28T07:35:26;10.10;99.90
9849;DHT22;4963;51.444;6.528;2023-12-28T07:37:53;10.20;99.90
9849;DHT22;4963;51.444;6.528;2023-12-28T07:40:20;10.20;99.90
9849;DHT22;4963;51.444;6.528;2023-12-28T07:42:47;10.20;99.90
9849;DHT22;4963;51.444;6.528;2023-12-28T07:45:14;10.20;99.90
9849;DHT22;4963;51.444;6.528;2023-12-28T07:47:42;10.20;99.90
9849;DHT22;4963;51.444;6.528;2023-12-28T07:50:11;10.20;99.90
9849;DHT22;4963;51.444;6.528;2023-12-28T07:52:38;10.20;99.90
9849;DHT22;4963;51.444;6.528;2023-12-28T07:55:05;10.20;99.90
9849;DHT22;4963;51.444;6.528;2023-12-28T07:57:32;10.20;99.90
9849;DHT22;4963;51.444;6.528;2023-12-28T08:00:00;10.20;99.90
9849;DHT22;4963;51.444;6.528;2023-12-28T08:02:27;10.20;99.90
9849;DHT22;4963;51.444;6.528;2023-12-28T08:04:54;10.20;99.90
9849;DHT22;4963;51.444;6.528;2023-12-28T08:07:22;10.20;99.90
9849;DHT22;4963;51.444;6.528;2023-12-28T08:09:49;10.20;99.90
9849;DHT22;4963;51.444;6.528;2023-12-28T08:12:16;10.20;99.90
9849;DHT22;4963;51.444;6.528;2023-12-28T08:14:43;10.20;99.90
9849;DHT22;4963;51.444;6.528;2023-12-28T08:17:11;10.20;99.90
9849;DHT22;4963;51.444;6.528;2023-12-28T08:19:38;10.20;99.90
9849;DHT22;4963;51.444;6.528;2023-12-28T08:22:05;10.20;99.90
9849;DHT22;4963;51.444;6.528;2023-12-28T08:24:33;10.20;99.90
9849;DHT22;4963;51.444;6.528;2023-12-28T08:27:01;10.20;99.90
9849;DHT22;4963;51.444;6.528;2023-12-28T08:29:28;10.20;99.90
9849;DHT22;4963;51.444;6.528;2023-12-28T08:31:55;10.20;99.90
9849;DHT22;4963;51.444;6.528;2023-12-28T08:34:22;10.20;99.90
9849;DHT22;4963;51.444;6.528;2023-12-28T08:36:50;10.30;99.90
9849;DHT22;4963;51.444;6.528;2023-12-28T08:39:17;10.20;99.90
9849;DHT22;4963;51.444;6.528;2023-12-28T08:41:46;10.30;99.90
9849;DHT22;4963;51.444;6.528;2023-12-28T08:44:13;10.20;99.90
9849;DHT22;4963;51.444;6.528;2023-12-28T08:46:39;10.20;99.90
9849;DHT22;4963;51.444;6.528;2023-12-28T08:49:06;10.20;99.90
9849;DHT22;4963;51.444;6.528;2023-12-28T08:51:33;10.20;99.90
9849;DHT22;4963;51.444;6.528;2023-12-28T08:54:00;10.30;99.90
9849;DHT22;4963;51.444;6.528;2023-12-28T08:56:27;10.30;99.90
9849;DHT22;4963;51.444;6.528;2023-12-28T08:58:57;10.30;99.90
9849;DHT22;4963;51.444;6.528;2023-12-28T09:01:24;10.30;99.90
9849;DHT22;4963;51.444;6.528;2023-12-28T09:03:53;10.30;99.90
9849;DHT22;4963;51.444;6.528;2023-12-28T09:06:22;10.30;99.90
9849;DHT22;4963;51.444;6.528;2023-12-28T09:08:50;10.30;99.90
9849;DHT22;4963;51.444;6.528;2023-12-28T09:11:18;10.30;99.90
9849;DHT22;4963;51.444;6.528;2023-12-28T09:13:45;10.30;99.90
9849;DHT22;4963;51.444;6.528;2023-12-28T09:16:15;10.30;99.90
9849;DHT22;4963;51.444;6.528;2023-12-28T09:18:42;10.30;99.90
9849;DHT22;4963;51.444;6.528;2023-12-28T09:21:09;10.40;99.90
9849;DHT22;4963;51.444;6.528;2023-12-28T09:23:36;10.40;99.90
9849;DHT22;4963;51.444;6.528;2023-12-28T09:26:04;10.40;99.90
9849;DHT22;4963;51.444;6.528;2023-12-28T09:28:32;10.40;99.90
9849;DHT22;4963;51.444;6.528;2023-12-28T09:31:01;10.40;99.90
9849;DHT22;4963;51.444;6.528;2023-12-28T09:33:31;10.50;99.90
9849;DHT22;4963;51.444;6.528;2023-12-28T09:35:57;10.50;99.90
9849;DHT22;4963;51.444;6.528;2023-12-28T09:38:25;10.50;99.90
9849;DHT22;4963;51.444;6.528;2023-12-28T09:40:54;10.50;99.90
9849;DHT22;4963;51.444;6.528;2023-12-28T09:43:23;10.50;99.90
9849;DHT22;4963;51.444;6.528;2023-12-28T09:45:51;10.50;99.90
9849;DHT22;4963;51.444;6.528;2023-12-28T09:48:19;10.60;99.90
9849;DHT22;4963;51.444;6.528;2023-12-28T09:50:51;10.60;99.90
9849;DHT22;4963;51.444;6.528;2023-12-28T09:53:20;10.60;99.90
9849;DHT22;4963;51.444;6.528;2023-12-28T09:55:48;10.60;99.90
9849;DHT22;4963;51.444;6.528;2023-12-28T09:58:17;10.60;99.90
9849;DHT22;4963;51.444;6.528;2023-12-28T10:00:45;10.60;99.90
9849;DHT22;4963;51.444;6.528;2023-12-28T10:03:13;10.70;99.90
9849;DHT22;4963;51.444;6.528;2023-12-28T10:05:40;10.70;99.90
9849;DHT22;4963;51.444;6.528;2023-12-28T10:08:11;10.70;99.90
9849;DHT22;4963;51.444;6.528;2023-12-28T10:10:38;10.70;99.90
9849;DHT22;4963;51.444;6.528;2023-12-28T10:13:06;10.70;99.90
9849;DHT22;4963;51.444;6.528;2023-12-28T10:15:34;10.70;99.90
9849;DHT22;4963;51.444;6.528;2023-12-28T10:18:02;10.70;99.90
9849;DHT22;4963;51.444;6.528;2023-12-28T10:20:30;10.70;99.90
9849;DHT22;4963;51.444;6.528;2023-12-28T10:22:58;10.70;99.90
9849;DHT22;4963;51.444;6.528;2023-12-28T10:25:27;10.70;99.90
9849;DHT22;4963;51.444;6.528;2023-12-28T10:27:54;10.70;99.90
9849;DHT22;4963;51.444;6.528;2023-12-28T10:30:21;10.80;99.90
9849;DHT22;4963;51.444;6.528;2023-12-28T10:32:49;10.80;99.90
9849;DHT22;4963;51.444;6.528;2023-12-28T10:35:16;10.80;99.90
9849;DHT22;4963;51.444;6.528;2023-12-28T10:37:43;10.80;99.90
9849;DHT22;4963;51.444;6.528;2023-12-28T10:40:13;10.80;99.90
9849;DHT22;4963;51.444;6.528;2023-12-28T10:42:49;10.80;99.90
9849;DHT22;4963;51.444;6.528;2023-12-28T10:45:18;10.80;99.90
9849;DHT22;4963;51.444;6.528;2023-12-28T10:47:54;10.80;99.90
9849;DHT22;4963;51.444;6.528;2023-12-28T10:50:23;10.80;99.90
9849;DHT22;4963;51.444;6.528;2023-12-28T10:52:56;10.80;99.90
9849;DHT22;4963;51.444;6.528;2023-12-28T10:55:33;10.90;99.90
9849;DHT22;4963;51.444;6.528;2023-12-28T10:58:08;10.80;99.90
9849;DHT22;4963;51.444;6.528;2023-12-28T11:00:41;10.80;99.90
9849;DHT22;4963;51.444;6.528;2023-12-28T11:03:11;10.80;99.90
9849;DHT22;4963;51.444;6.528;2023-12-28T11:05:39;10.80;99.90
9849;DHT22;4963;51.444;6.528;2023-12-28T11:08:08;10.80;99.90
9849;DHT22;4963;51.444;6.528;2023-12-28T11:10:36;10.80;99.90
9849;DHT22;4963;51.444;6.528;2023-12-28T11:13:05;10.80;99.90
9849;DHT22;4963;51.444;6.528;2023-12-28T11:15:33;10.80;99.90
9849;DHT22;4963;51.444;6.528;2023-12-28T11:18:00;10.80;99.90
9849;DHT22;4963;51.444;6.528;2023-12-28T11:20:28;10.90;99.90
9849;DHT22;4963;51.444;6.528;2023-12-28T11:22:56;10.90;99.90
9849;DHT22;4963;51.444;6.528;2023-12-28T11:25:24;10.90;99.90
9849;DHT22;4963;51.444;6.528;2023-12-28T11:27:57;10.90;99.90
9849;DHT22;4963;51.444;6.528;2023-12-28T11:30:27;10.90;99.90
9849;DHT22;4963;51.444;6.528;2023-12-28T11:32:56;10.90;99.90
9849;DHT22;4963;51.444;6.528;2023-12-28T11:35:23;10.90;99.90
9849;DHT22;4963;51.444;6.528;2023-12-28T11:37:53;11.00;99.90
9849;DHT22;4963;51.444;6.528;2023-12-28T11:40:21;10.90;99.90
9849;DHT22;4963;51.444;6.528;2023-12-28T11:42:49;11.00;99.90
9849;DHT22;4963;51.444;6.528;2023-12-28T11:45:17;11.00;99.90
9849;DHT22;4963;51.444;6.528;2023-12-28T11:47:46;11.00;99.90
9849;DHT22;4963;51.444;6.528;2023-12-28T11:50:13;11.00;99.90
9849;DHT22;4963;51.444;6.528;2023-12-28T11:52:40;11.00;99.90
9849;DHT22;4963;51.444;6.528;2023-12-28T11:55:07;11.00;99.90
9849;DHT22;4963;51.444;6.528;2023-12-28T11:57:37;11.10;99.90
9849;DHT22;4963;51.444;6.528;2023-12-28T12:00:06;11.00;99.90
9849;DHT22;4963;51.444;6.528;2023-12-28T12:02:34;11.10;99.90
9849;DHT22;4963;51.444;6.528;2023-12-28T12:05:02;11.10;99.90
9849;DHT22;4963;51.444;6.528;2023-12-28T12:07:30;11.10;99.90
9849;DHT22;4963;51.444;6.528;2023-12-28T12:09:57;11.10;99.90
9849;DHT22;4963;51.444;6.528;2023-12-28T12:12:24;11.10;99.90
9849;DHT22;4963;51.444;6.528;2023-12-28T12:14:52;11.10;99.90
9849;DHT22;4963;51.444;6.528;2023-12-28T12:17:19;11.10;99.90
9849;DHT22;4963;51.444;6.528;2023-12-28T12:19:46;11.10;99.90
9849;DHT22;4963;51.444;6.528;2023-12-28T12:22:16;11.20;99.90
9849;DHT22;4963;51.444;6.528;2023-12-28T12:24:44;11.20;99.90
9849;DHT22;4963;51.444;6.528;2023-12-28T12:27:14;11.20;99.90
9849;DHT22;4963;51.444;6.528;2023-12-28T12:29:41;11.30;99.90
9849;DHT22;4963;51.444;6.528;2023-12-28T12:32:08;11.30;99.90
9849;DHT22;4963;51.444;6.528;2023-12-28T12:34:35;11.30;99.90
9849;DHT22;4963;51.444;6.528;2023-12-28T12:37:02;11.30;99.90
9849;DHT22;4963;51.444;6.528;2023-12-28T12:39:31;11.30;99.90
9849;DHT22;4963;51.444;6.528;2023-12-28T12:41:59;11.30;99.90
9849;DHT22;4963;51.444;6.528;2023-12-28T12:44:26;11.30;99.90
9849;DHT22;4963;51.444;6.528;2023-12-28T12:46:59;11.20;99.90
9849;DHT22;4963;51.444;6.528;2023-12-28T12:49:26;11.30;99.90
9849;DHT22;4963;51.444;6.528;2023-12-28T12:51:53;11.20;99.90
9849;DHT22;4963;51.444;6.528;2023-12-28T12:54:21;11.20;99.90
9849;DHT22;4963;51.444;6.528;2023-12-28T12:56:49;11.30;99.90
9849;DHT22;4963;51.444;6.528;2023-12-28T12:59:16;11.20;99.90
9849;DHT22;4963;51.444;6.528;2023-12-28T13:01:44;11.20;99.90
9849;DHT22;4963;51.444;6.528;2023-12-28T13:04:11;11.20;99.90
9849;DHT22;4963;51.444;6.528;2023-12-28T13:06:39;11.20;99.90
9849;DHT22;4963;51.444;6.528;2023-12-28T13:09:06;11.30;99.90
9849;DHT22;4963;51.444;6.528;2023-12-28T13:11:33;11.30;99.90
9849;DHT22;4963;51.444;6.528;2023-12-28T13:14:02;11.30;99.90
9849;DHT22;4963;51.444;6.528;2023-12-28T13:16:30;11.30;99.90
9849;DHT22;4963;51.444;6.528;2023-12-28T13:18:57;11.30;99.90
9849;DHT22;4963;51.444;6.528;2023-12-28T13:21:24;11.30;99.90
9849;DHT22;4963;51.444;6.528;2023-12-28T13:23:51;11.30;99.90
9849;DHT22;4963;51.444;6.528;2023-12-28T13:26:17;11.30;99.90
9849;DHT22;4963;51.444;6.528;2023-12-28T13:28:44;11.30;99.90
9849;DHT22;4963;51.444;6.528;2023-12-28T13:31:13;11.20;99.90
9849;DHT22;4963;51.444;6.528;2023-12-28T13:33:40;11.20;99.90
9849;DHT22;4963;51.444;6.528;2023-12-28T13:36:06;11.20;99.90
9849;DHT22;4963;51.444;6.528;2023-12-28T13:38:34;11.30;99.90
9849;DHT22;4963;51.444;6.528;2023-12-28T13:41:01;11.20;99.90
9849;DHT22;4963;51.444;6.528;2023-12-28T13:43:28;11.20;99.90
9849;DHT22;4963;51.444;6.528;2023-12-28T13:45:55;11.20;99.90
9849;DHT22;4963;51.444;6.528;2023-12-28T13:48:23;11.20;99.90
9849;DHT22;4963;51.444;6.528;2023-12-28T13:50:50;11.20;99.90
9849;DHT22;4963;51.444;6.528;2023-12-28T13:53:17;11.20;99.90
9849;DHT22;4963;51.444;6.528;2023-12-28T13:55:44;11.20;99.90
9849;DHT22;4963;51.444;6.528;2023-12-28T13:58:11;11.20;99.90
9849;DHT22;4963;51.444;6.528;2023-12-28T14:00:39;11.10;99.90
9849;DHT22;4963;51.444;6.528;2023-12-28T14:03:06;11.10;99.90
9849;DHT22;4963;51.444;6.528;2023-12-28T14:05:35;11.10;99.90
9849;DHT22;4963;51.444;6.528;2023-12-28T14:08:03;11.10;99.90
9849;DHT22;4963;51.444;6.528;2023-12-28T14:10:30;11.10;99.90
9849;DHT22;4963;51.444;6.528;2023-12-28T14:12:57;11.10;99.90
9849;DHT22;4963;51.444;6.528;2023-12-28T14:15:24;11.10;99.90
9849;DHT22;4963;51.444;6.528;2023-12-28T14:17:50;11.10;99.90
9849;DHT22;4963;51.444;6.528;2023-12-28T14:20:17;11.10;99.90
9849;DHT22;4963;51.444;6.528;2023-12-28T14:22:46;11.00;99.90
9849;DHT22;4963;51.444;6.528;2023-12-28T14:25:14;11.10;99.90
9849;DHT22;4963;51.444;6.528;2023-12-28T14:27:42;11.10;99.90
9849;DHT22;4963;51.444;6.528;2023-12-28T14:30:10;11.10;99.90
9849;DHT22;4963;51.444;6.528;2023-12-28T14:32:38;11.10;99.90
9849;DHT22;4963;51.444;6.528;2023-12-28T14:35:06;11.00;99.90
9849;DHT22;4963;51.444;6.528;2023-12-28T14:37:33;11.00;99.90
9849;DHT22;4963;51.444;6.528;2023-12-28T14:40:03;11.00;99.90
9849;DHT22;4963;51.444;6.528;2023-12-28T14:42:32;11.00;99.90
9849;DHT22;4963;51.444;6.528;2023-12-28T14:44:59;11.00;99.90
9849;DHT22;4963;51.444;6.528;2023-12-28T14:47:27;11.00;99.90
9849;DHT22;4963;51.444;6.528;2023-12-28T14:49:54;11.00;99.90
9849;DHT22;4963;51.444;6.528;2023-12-28T14:52:22;10.90;99.90
9849;DHT22;4963;51.444;6.528;2023-12-28T14:54:49;10.90;99.90
9849;DHT22;4963;51.444;6.528;2023-12-28T14:57:19;10.90;99.90
9849;DHT22;4963;51.444;6.528;2023-12-28T14:59:46;10.90;99.90
9849;DHT22;4963;51.444;6.528;2023-12-28T15:02:13;10.90;99.90
9849;DHT22;4963;51.444;6.528;2023-12-28T15:04:40;10.90;99.90
9849;DHT22;4963;51.444;6.528;2023-12-28T15:07:07;10.80;99.90
9849;DHT22;4963;51.444;6.528;2023-12-28T15:18:51;10.60;99.90
9849;DHT22;4963;51.444;6.528;2023-12-28T15:21:19;10.60;99.90
9849;DHT22;4963;51.444;6.528;2023-12-28T15:23:46;10.60;99.90
9849;DHT22;4963;51.444;6.528;2023-12-28T15:26:13;10.60;99.90
9849;DHT22;4963;51.444;6.528;2023-12-28T15:28:40;10.60;99.90
9849;DHT22;4963;51.444;6.528;2023-12-28T15:31:07;10.70;99.90
9849;DHT22;4963;51.444;6.528;2023-12-28T15:33:34;10.70;99.90
9849;DHT22;4963;51.444;6.528;2023-12-28T15:36:02;10.70;99.90
9849;DHT22;4963;51.444;6.528;2023-12-28T15:38:29;10.70;99.90
9849;DHT22;4963;51.444;6.528;2023-12-28T15:40:56;10.70;99.90
9849;DHT22;4963;51.444;6.528;2023-12-28T15:43:23;10.70;99.90
9849;DHT22;4963;51.444;6.528;2023-12-28T15:45:50;10.70;99.90
9849;DHT22;4963;51.444;6.528;2023-12-28T15:48:20;10.70;99.90
9849;DHT22;4963;51.444;6.528;2023-12-28T15:50:46;10.80;99.90
9849;DHT22;4963;51.444;6.528;2023-12-28T15:53:15;10.70;99.90
9849;DHT22;4963;51.444;6.528;2023-12-28T15:55:41;10.70;99.90
9849;DHT22;4963;51.444;6.528;2023-12-28T15:58:08;10.80;99.90
9849;DHT22;4963;51.444;6.528;2023-12-28T16:00:35;10.80;99.90
9849;DHT22;4963;51.444;6.528;2023-12-28T16:03:02;10.80;99.90
9849;DHT22;4963;51.444;6.528;2023-12-28T16:05:29;10.80;99.90
9849;DHT22;4963;51.444;6.528;2023-12-28T16:07:56;10.80;99.90
9849;DHT22;4963;51.444;6.528;2023-12-28T16:10:24;10.80;99.90
9849;DHT22;4963;51.444;6.528;2023-12-28T16:12:53;10.90;99.90
9849;DHT22;4963;51.444;6.528;2023-12-28T16:15:20;10.90;99.90
9849;DHT22;4963;51.444;6.528;2023-12-28T16:17:48;10.90;99.90
9849;DHT22;4963;51.444;6.528;2023-12-28T16:20:18;10.90;99.90